sensor_id;sensor_type;location;lat;lon;timestamp;pressure;altitude;pressure_sealevel;temperature;humidity
4398;BME280;2213;49.720;7.296;2023-04-01T00:01:36;96450.22;;;10.28;100.00
4398;BME280;2213;49.720;7.296;2023-04-01T00:04:05;96439.78;;;10.28;100.00
4398;BME280;2213;49.720;7.296;2023-04-01T00:06:33;96450.00;;;10.29;100.00
4398;BME280;2213;49.720;7.296;2023-04-01T00:09:03;96440.38;;;10.30;100.00
4398;BME280;2213;49.720;7.296;2023-04-01T00:11:33;96441.50;;;10.34;100.00
4398;BME280;2213;49.720;7.296;2023-04-01T00:14:02;96438.66;;;10.35;100.00
4398;BME280;2213;49.720;7.296;2023-04-01T00:16:35;96439.91;;;10.33;100.00
4398;BME280;2213;49.720;7.296;2023-04-01T00:19:04;96440.72;;;10.33;100.00
4398;BME280;2213;49.720;7.296;2023-04-01T00:21:33;96444.34;;;10.32;100.00
4398;BME280;2213;49.720;7.296;2023-04-01T00:24:04;96446.38;;;10.30;100.00
4398;BME280;2213;49.720;7.296;2023-04-01T00:26:35;96445.78;;;10.28;100.00
4398;BME280;2213;49.720;7.296;2023-04-01T00:29:05;96442.28;;;10.23;100.00
4398;BME280;2213;49.720;7.296;2023-04-01T00:31:37;96446.25;;;10.25;100.00
4398;BME280;2213;49.720;7.296;2023-04-01T00:34:07;96437.16;;;10.28;100.00
4398;BME280;2213;49.720;7.296;2023-04-01T00:36:36;96451.81;;;10.29;100.00
4398;BME280;2213;49.720;7.296;2023-04-01T00:39:06;96439.44;;;10.24;100.00
4398;BME280;2213;49.720;7.296;2023-04-01T00:41:36;96443.88;;;10.24;100.00
4398;BME280;2213;49.720;7.296;2023-04-01T00:44:22;96436.16;;;10.29;100.00
4398;BME280;2213;49.720;7.296;2023-04-01T00:46:54;96440.38;;;10.30;100.00
4398;BME280;2213;49.720;7.296;2023-04-01T00:49:28;96445.59;;;10.30;100.00
4398;BME280;2213;49.720;7.296;2023-04-01T00:52:02;96443.19;;;10.28;100.00
4398;BME280;2213;49.720;7.296;2023-04-01T00:54:34;96446.34;;;10.19;100.00
4398;BME280;2213;49.720;7.296;2023-04-01T00:57:09;96446.56;;;10.17;100.00
4398;BME280;2213;49.720;7.296;2023-04-01T00:59:44;96442.00;;;10.13;100.00
4398;BME280;2213;49.720;7.296;2023-04-01T01:02:16;96439.38;;;10.13;100.00
4398;BME280;2213;49.720;7.296;2023-04-01T01:04:46;96448.69;;;10.08;100.00
4398;BME280;2213;49.720;7.296;2023-04-01T01:07:29;96454.13;;;10.07;100.00
4398;BME280;2213;49.720;7.296;2023-04-01T01:10:10;96446.88;;;10.09;100.00
4398;BME280;2213;49.720;7.296;2023-04-01T01:12:49;96448.69;;;10.08;100.00
4398;BME280;2213;49.720;7.296;2023-04-01T01:15:28;96447.09;;;10.07;100.00
4398;BME280;2213;49.720;7.296;2023-04-01T01:18:07;96441.06;;;10.07;100.00
4398;BME280;2213;49.720;7.296;2023-04-01T01:24:28;96440.72;;;10.03;100.00
4398;BME280;2213;49.720;7.296;2023-04-01T01:27:04;96443.41;;;9.97;100.00
4398;BME280;2213;49.720;7.296;2023-04-01T01:30:12;96438.19;;;9.97;100.00
4398;BME280;2213;49.720;7.296;2023-04-01T01:33:39;96439.94;;;10.03;100.00
4398;BME280;2213;49.720;7.296;2023-04-01T01:36:18;96442.56;;;10.03;100.00
4398;BME280;2213;49.720;7.296;2023-04-01T01:38:51;96439.59;;;9.99;100.00
4398;BME280;2213;49.720;7.296;2023-04-01T01:41:24;96443.41;;;9.97;100.00
4398;BME280;2213;49.720;7.296;2023-04-01T01:43:58;96437.63;;;9.95;100.00
4398;BME280;2213;49.720;7.296;2023-04-01T01:46:31;96439.22;;;9.96;100.00
4398;BME280;2213;49.720;7.296;2023-04-01T01:49:03;96446.03;;;9.97;100.00
4398;BME280;2213;49.720;7.296;2023-04-01T01:51:34;96436.16;;;9.99;100.00
4398;BME280;2213;49.720;7.296;2023-04-01T01:54:04;96451.59;;;10.00;100.00
4398;BME280;2213;49.720;7.296;2023-04-01T01:56:36;96439.22;;;9.96;100.00
4398;BME280;2213;49.720;7.296;2023-04-01T01:59:11;96431.59;;;9.94;100.00
4398;BME280;2213;49.720;7.296;2023-04-01T02:01:45;96448.88;;;9.95;100.00
4398;BME280;2213;49.720;7.296;2023-04-01T02:04:17;96435.47;;;9.92;100.00
4398;BME280;2213;49.720;7.296;2023-04-01T02:06:54;96434.44;;;9.93;100.00
4398;BME280;2213;49.720;7.296;2023-04-01T02:09:24;96426.38;;;9.94;100.00
4398;BME280;2213;49.720;7.296;2023-04-01T02:11:57;96426.38;;;9.94;100.00
4398;BME280;2213;49.720;7.296;2023-04-01T02:14:34;96432.16;;;9.96;100.00
4398;BME280;2213;49.720;7.296;2023-04-01T02:17:09;96429.91;;;10.00;100.00
4398;BME280;2213;49.720;7.296;2023-04-01T02:19:47;96414.25;;;10.00;100.00
4398;BME280;2213;49.720;7.296;2023-04-01T02:22:24;96420.59;;;9.92;100.00
4398;BME280;2213;49.720;7.296;2023-04-01T02:25:00;96425.59;;;9.94;100.00
4398;BME280;2213;49.720;7.296;2023-04-01T02:27:32;96421.25;;;9.88;100.00
4398;BME280;2213;49.720;7.296;2023-04-01T02:30:03;96424.44;;;9.90;100.00
4398;BME280;2213;49.720;7.296;2023-04-01T02:32:35;96421.63;;;9.91;100.00
4398;BME280;2213;49.720;7.296;2023-04-01T02:35:10;96417.41;;;9.90;100.00
4398;BME280;2213;49.720;7.296;2023-04-01T02:37:43;96418.19;;;9.91;100.00
4398;BME280;2213;49.720;7.296;2023-04-01T02:40:14;96413.88;;;9.85;100.00
4398;BME280;2213;49.720;7.296;2023-04-01T02:42:44;96424.97;;;9.80;100.00
4398;BME280;2213;49.720;7.296;2023-04-01T02:45:14;96424.19;;;9.80;100.00
4398;BME280;2213;49.720;7.296;2023-04-01T02:47:44;96424.88;;;9.75;100.00
4398;BME280;2213;49.720;7.296;2023-04-01T02:50:13;96414.19;;;9.77;100.00
4398;BME280;2213;49.720;7.296;2023-04-01T02:52:44;96415.06;;;9.71;100.00
4398;BME280;2213;49.720;7.296;2023-04-01T02:55:15;96413.03;;;9.73;100.00
4398;BME280;2213;49.720;7.296;2023-04-01T02:57:46;96401.38;;;9.75;100.00
4398;BME280;2213;49.720;7.296;2023-04-01T03:00:17;96417.09;;;9.69;100.00
4398;BME280;2213;49.720;7.296;2023-04-01T03:02:47;96411.31;;;9.67;100.00
4398;BME280;2213;49.720;7.296;2023-04-01T03:05:17;96408.34;;;9.63;100.00
4398;BME280;2213;49.720;7.296;2023-04-01T03:07:48;96410.88;;;9.70;100.00
4398;BME280;2213;49.720;7.296;2023-04-01T03:10:18;96412.69;;;9.69;100.00
4398;BME280;2213;49.720;7.296;2023-04-01T03:12:48;96405.53;;;9.65;100.00
4398;BME280;2213;49.720;7.296;2023-04-01T03:15:19;96412.13;;;9.67;100.00
4398;BME280;2213;49.720;7.296;2023-04-01T03:17:49;96405.66;;;9.70;100.00
4398;BME280;2213;49.720;7.296;2023-04-01T03:20:18;96414.28;;;9.70;100.00
4398;BME280;2213;49.720;7.296;2023-04-01T03:22:51;96402.47;;;9.68;100.00
4398;BME280;2213;49.720;7.296;2023-04-01T03:25:22;96411.53;;;9.65;100.00
4398;BME280;2213;49.720;7.296;2023-04-01T03:27:52;96413.22;;;9.59;100.00
4398;BME280;2213;49.720;7.296;2023-04-01T03:30:21;96413.66;;;9.56;100.00
4398;BME280;2213;49.720;7.296;2023-04-01T03:32:52;96409.09;;;9.52;100.00
4398;BME280;2213;49.720;7.296;2023-04-01T03:35:22;96426.56;;;9.51;100.00
4398;BME280;2213;49.720;7.296;2023-04-01T03:37:53;96395.34;;;9.45;100.00
4398;BME280;2213;49.720;7.296;2023-04-01T03:40:24;96405.69;;;9.51;100.00
4398;BME280;2213;49.720;7.296;2023-04-01T03:42:55;96398.44;;;9.53;100.00
4398;BME280;2213;49.720;7.296;2023-04-01T03:45:25;96401.06;;;9.53;100.00
4398;BME280;2213;49.720;7.296;2023-04-01T03:47:55;96402.31;;;9.51;100.00
4398;BME280;2213;49.720;7.296;2023-04-01T03:50:25;96400.91;;;9.48;100.00
4398;BME280;2213;49.720;7.296;2023-04-01T03:52:57;96393.69;;;9.50;100.00
4398;BME280;2213;49.720;7.296;2023-04-01T03:55:28;96399.34;;;9.47;100.00
4398;BME280;2213;49.720;7.296;2023-04-01T03:57:59;96413.84;;;9.43;100.00
4398;BME280;2213;49.720;7.296;2023-04-01T04:00:29;96405.78;;;9.45;100.00
4398;BME280;2213;49.720;7.296;2023-04-01T04:03:00;96398.97;;;9.44;100.00
4398;BME280;2213;49.720;7.296;2023-04-01T04:05:29;96390.47;;;9.48;100.00
4398;BME280;2213;49.720;7.296;2023-04-01T04:08:02;96380.03;;;9.48;100.00
4398;BME280;2213;49.720;7.296;2023-04-01T04:10:33;96397.28;;;9.49;100.00
4398;BME280;2213;49.720;7.296;2023-04-01T04:13:04;96393.31;;;9.47;100.00
4398;BME280;2213;49.720;7.296;2023-04-01T04:15:34;96393.97;;;9.42;100.00
4398;BME280;2213;49.720;7.296;2023-04-01T04:18:05;96403.84;;;9.40;100.00
4398;BME280;2213;49.720;7.296;2023-04-01T04:20:35;96398.63;;;9.40;100.00
4398;BME280;2213;49.720;7.296;2023-04-01T04:23:07;96396.00;;;9.40;100.00
4398;BME280;2213;49.720;7.296;2023-04-01T04:25:37;96411.16;;;9.32;100.00
4398;BME280;2213;49.720;7.296;2023-04-01T04:28:08;96405.94;;;9.32;100.00
4398;BME280;2213;49.720;7.296;2023-04-01T04:30:39;96400.94;;;9.30;100.00
4398;BME280;2213;49.720;7.296;2023-04-01T04:33:10;96401.72;;;9.31;100.00
4398;BME280;2213;49.720;7.296;2023-04-01T04:35:41;96403.53;;;9.30;100.00
4398;BME280;2213;49.720;7.296;2023-04-01T04:38:13;96398.56;;;9.29;100.00
4398;BME280;2213;49.720;7.296;2023-04-01T04:40:43;96399.91;;;9.31;100.00
4398;BME280;2213;49.720;7.296;2023-04-01T04:43:16;96393.69;;;9.32;100.00
4398;BME280;2213;49.720;7.296;2023-04-01T04:45:46;96401.28;;;9.34;100.00
4398;BME280;2213;49.720;7.296;2023-04-01T04:48:17;96392.69;;;9.33;100.00
4398;BME280;2213;49.720;7.296;2023-04-01T04:50:49;96390.66;;;9.35;100.00
4398;BME280;2213;49.720;7.296;2023-04-01T04:53:21;96383.38;;;9.37;100.00
4398;BME280;2213;49.720;7.296;2023-04-01T04:55:50;96397.75;;;9.28;100.00
4398;BME280;2213;49.720;7.296;2023-04-01T04:58:21;96399.13;;;9.31;100.00
4398;BME280;2213;49.720;7.296;2023-04-01T05:00:51;96396.88;;;9.34;100.00
4398;BME280;2213;49.720;7.296;2023-04-01T05:03:21;96390.09;;;9.33;100.00
4398;BME280;2213;49.720;7.296;2023-04-01T05:05:53;96396.31;;;9.32;100.00
4398;BME280;2213;49.720;7.296;2023-04-01T05:08:24;96395.59;;;9.25;100.00
4398;BME280;2213;49.720;7.296;2023-04-01T05:10:54;96400.44;;;9.22;100.00
4398;BME280;2213;49.720;7.296;2023-04-01T05:13:24;96397.56;;;9.30;100.00
4398;BME280;2213;49.720;7.296;2023-04-01T05:15:53;96402.75;;;9.30;100.00
4398;BME280;2213;49.720;7.296;2023-04-01T05:18:23;96391.53;;;9.29;100.00
4398;BME280;2213;49.720;7.296;2023-04-01T05:20:54;96398.75;;;9.27;100.00
4398;BME280;2213;49.720;7.296;2023-04-01T05:23:27;96398.75;;;9.27;100.00
4398;BME280;2213;49.720;7.296;2023-04-01T05:25:56;96395.72;;;9.30;100.00
4398;BME280;2213;49.720;7.296;2023-04-01T05:28:26;96405.13;;;9.31;100.00
4398;BME280;2213;49.720;7.296;2023-04-01T05:30:58;96399.22;;;9.24;100.00
4398;BME280;2213;49.720;7.296;2023-04-01T05:33:30;96396.16;;;9.27;100.00
4398;BME280;2213;49.720;7.296;2023-04-01T05:36:07;96402.41;;;9.26;100.00
4398;BME280;2213;49.720;7.296;2023-04-01T05:38:40;96405.38;;;9.30;100.00
4398;BME280;2213;49.720;7.296;2023-04-01T05:41:10;96407.53;;;9.33;100.00
4398;BME280;2213;49.720;7.296;2023-04-01T05:43:41;96409.72;;;9.36;100.00
4398;BME280;2213;49.720;7.296;2023-04-01T05:46:11;96409.72;;;9.36;100.00
4398;BME280;2213;49.720;7.296;2023-04-01T05:48:41;96415.38;;;9.33;100.00
4398;BME280;2213;49.720;7.296;2023-04-01T05:51:13;96419.91;;;9.37;100.00
4398;BME280;2213;49.720;7.296;2023-04-01T05:53:45;96409.47;;;9.37;100.00
4398;BME280;2213;49.720;7.296;2023-04-01T05:56:14;96416.28;;;9.38;100.00
4398;BME280;2213;49.720;7.296;2023-04-01T05:58:46;96424.13;;;9.38;100.00
4398;BME280;2213;49.720;7.296;2023-04-01T06:01:19;96415.13;;;9.34;100.00
4398;BME280;2213;49.720;7.296;2023-04-01T06:03:50;96425.13;;;9.37;100.00
4398;BME280;2213;49.720;7.296;2023-04-01T06:06:24;96421.50;;;9.38;100.00
4398;BME280;2213;49.720;7.296;2023-04-01T06:08:57;96428.06;;;9.29;100.00
4398;BME280;2213;49.720;7.296;2023-04-01T06:11:41;96426.81;;;9.32;100.00
4398;BME280;2213;49.720;7.296;2023-04-01T06:14:29;96416.72;;;9.35;100.00
4398;BME280;2213;49.720;7.296;2023-04-01T06:17:18;96418.34;;;9.36;100.00
4398;BME280;2213;49.720;7.296;2023-04-01T06:20:01;96429.94;;;9.40;100.00
4398;BME280;2213;49.720;7.296;2023-04-01T06:23:26;96430.34;;;9.37;100.00
4398;BME280;2213;49.720;7.296;2023-04-01T06:26:24;96427.00;;;9.30;100.00
4398;BME280;2213;49.720;7.296;2023-04-01T06:29:36;96425.94;;;9.38;100.00
4398;BME280;2213;49.720;7.296;2023-04-01T06:32:38;96427.09;;;9.42;100.00
4398;BME280;2213;49.720;7.296;2023-04-01T06:35:48;96427.09;;;9.42;100.00
4398;BME280;2213;49.720;7.296;2023-04-01T06:38:57;96432.66;;;9.45;100.00
4398;BME280;2213;49.720;7.296;2023-04-01T06:42:31;96427.44;;;9.45;100.00
4398;BME280;2213;49.720;7.296;2023-04-01T06:45:36;96430.41;;;9.49;100.00
4398;BME280;2213;49.720;7.296;2023-04-01T06:48:53;96430.56;;;9.54;100.00
4398;BME280;2213;49.720;7.296;2023-04-01T06:51:35;96436.34;;;9.56;100.00
4398;BME280;2213;49.720;7.296;2023-04-01T06:54:12;96434.53;;;9.56;100.00
4398;BME280;2213;49.720;7.296;2023-04-01T06:56:50;96423.09;;;9.57;100.00
4398;BME280;2213;49.720;7.296;2023-04-01T06:59:30;96431.94;;;9.56;100.00
4398;BME280;2213;49.720;7.296;2023-04-01T07:02:16;96429.44;;;9.61;100.00
4398;BME280;2213;49.720;7.296;2023-04-01T07:04:51;96428.44;;;9.63;100.00
4398;BME280;2213;49.720;7.296;2023-04-01T07:07:33;96420.16;;;9.66;100.00
4398;BME280;2213;49.720;7.296;2023-04-01T07:10:10;96424.22;;;9.61;100.00
4398;BME280;2213;49.720;7.296;2023-04-01T07:12:51;96425.16;;;9.67;100.00
4398;BME280;2213;49.720;7.296;2023-04-01T07:15:33;96426.41;;;9.65;100.00
4398;BME280;2213;49.720;7.296;2023-04-01T07:18:12;96436.84;;;9.65;100.00
4398;BME280;2213;49.720;7.296;2023-04-01T07:20:46;96428.88;;;9.59;100.00
4398;BME280;2213;49.720;7.296;2023-04-01T07:23:24;96437.84;;;9.64;100.00
4398;BME280;2213;49.720;7.296;2023-04-01T07:25:59;96430.16;;;9.69;100.00
4398;BME280;2213;49.720;7.296;2023-04-01T07:28:33;96433.00;;;9.67;100.00
4398;BME280;2213;49.720;7.296;2023-04-01T07:31:18;96432.53;;;9.70;100.00
4398;BME280;2213;49.720;7.296;2023-04-01T07:33:59;96437.97;;;9.69;100.00
4398;BME280;2213;49.720;7.296;2023-04-01T07:36:39;96457.19;;;9.74;100.00
4398;BME280;2213;49.720;7.296;2023-04-01T07:39:26;96448.13;;;9.77;100.00
4398;BME280;2213;49.720;7.296;2023-04-01T07:42:05;96447.09;;;9.78;100.00
4398;BME280;2213;49.720;7.296;2023-04-01T07:44:51;96450.63;;;9.83;100.00
4398;BME280;2213;49.720;7.296;2023-04-01T07:47:45;96451.88;;;9.81;100.00
4398;BME280;2213;49.720;7.296;2023-04-01T07:50:28;96454.59;;;9.86;100.00
4398;BME280;2213;49.720;7.296;2023-04-01T07:53:08;96455.31;;;9.93;100.00
4398;BME280;2213;49.720;7.296;2023-04-01T07:55:48;96458.06;;;9.98;100.00
4398;BME280;2213;49.720;7.296;2023-04-01T07:58:30;96459.78;;;10.04;100.00
4398;BME280;2213;49.720;7.296;2023-04-01T08:01:13;96469.88;;;10.00;100.00
4398;BME280;2213;49.720;7.296;2023-04-01T08:04:23;96461.38;;;10.05;100.00
4398;BME280;2213;49.720;7.296;2023-04-01T08:07:05;96467.16;;;10.07;100.00
4398;BME280;2213;49.720;7.296;2023-04-01T08:09:47;96473.56;;;10.11;100.00
4398;BME280;2213;49.720;7.296;2023-04-01T08:12:35;96469.50;;;10.15;100.00
4398;BME280;2213;49.720;7.296;2023-04-01T08:15:22;96467.69;;;10.16;100.00
4398;BME280;2213;49.720;7.296;2023-04-01T08:18:05;96481.91;;;10.20;100.00
4398;BME280;2213;49.720;7.296;2023-04-01T08:20:45;96482.25;;;10.23;100.00
4398;BME280;2213;49.720;7.296;2023-04-01T08:23:19;96485.44;;;10.25;100.00
4398;BME280;2213;49.720;7.296;2023-04-01T08:26:00;96488.03;;;10.25;100.00
4398;BME280;2213;49.720;7.296;2023-04-01T08:28:37;96496.69;;;10.26;100.00
4398;BME280;2213;49.720;7.296;2023-04-01T08:31:13;96494.22;;;10.31;100.00
4398;BME280;2213;49.720;7.296;2023-04-01T08:33:47;96494.97;;;10.31;100.00
4398;BME280;2213;49.720;7.296;2023-04-01T08:36:28;96497.38;;;10.33;100.00
4398;BME280;2213;49.720;7.296;2023-04-01T08:39:07;96498.03;;;10.28;100.00
4398;BME280;2213;49.720;7.296;2023-04-01T08:45:32;96502.41;;;10.34;100.00
4398;BME280;2213;49.720;7.296;2023-04-01T08:48:47;96503.41;;;10.33;100.00
4398;BME280;2213;49.720;7.296;2023-04-01T08:52:09;96512.84;;;10.34;100.00
4398;BME280;2213;49.720;7.296;2023-04-01T08:55:15;96508.19;;;10.36;100.00
4398;BME280;2213;49.720;7.296;2023-04-01T08:58:06;96510.91;;;10.41;100.00
4398;BME280;2213;49.720;7.296;2023-04-01T09:00:47;96506.03;;;10.45;100.00
4398;BME280;2213;49.720;7.296;2023-04-01T09:03:41;96513.66;;;10.46;100.00
4398;BME280;2213;49.720;7.296;2023-04-01T09:06:35;96512.66;;;10.47;100.00
4398;BME280;2213;49.720;7.296;2023-04-01T09:09:53;96511.59;;;10.48;100.00
4398;BME280;2213;49.720;7.296;2023-04-01T09:13:12;96514.81;;;10.50;100.00
4398;BME280;2213;49.720;7.296;2023-04-01T09:16:04;96512.31;;;10.55;100.00
4398;BME280;2213;49.720;7.296;2023-04-01T09:19:14;96510.84;;;10.59;100.00
4398;BME280;2213;49.720;7.296;2023-04-01T09:22:10;96516.22;;;10.65;100.00
4398;BME280;2213;49.720;7.296;2023-04-01T09:25:23;96507.31;;;10.66;100.00
4398;BME280;2213;49.720;7.296;2023-04-01T09:28:05;96510.19;;;10.64;100.00
4398;BME280;2213;49.720;7.296;2023-04-01T09:31:12;96517.34;;;10.69;100.00
4398;BME280;2213;49.720;7.296;2023-04-01T09:34:26;96527.81;;;10.69;100.00
4398;BME280;2213;49.720;7.296;2023-04-01T09:37:19;96523.81;;;10.66;100.00
4398;BME280;2213;49.720;7.296;2023-04-01T09:40:17;96527.81;;;10.69;100.00
4398;BME280;2213;49.720;7.296;2023-04-01T09:43:16;96537.47;;;10.68;100.00
4398;BME280;2213;49.720;7.296;2023-04-01T09:46:18;96534.16;;;10.73;100.00
4398;BME280;2213;49.720;7.296;2023-04-01T09:49:43;96532.03;;;10.81;100.00
4398;BME280;2213;49.720;7.296;2023-04-01T09:52:31;96534.84;;;10.80;100.00
4398;BME280;2213;49.720;7.296;2023-04-01T09:55:52;96534.09;;;10.79;100.00
4398;BME280;2213;49.720;7.296;2023-04-01T09:59:14;96545.25;;;10.86;100.00
4398;BME280;2213;49.720;7.296;2023-04-01T10:09:21;96544.31;;;10.92;100.00
4398;BME280;2213;49.720;7.296;2023-04-01T10:12:41;96539.44;;;10.96;100.00
4398;BME280;2213;49.720;7.296;2023-04-01T10:16:19;96543.75;;;11.02;100.00
4398;BME280;2213;49.720;7.296;2023-04-01T10:19:32;96551.47;;;10.97;100.00
4398;BME280;2213;49.720;7.296;2023-04-01T10:22:45;96541.81;;;10.97;100.00
4398;BME280;2213;49.720;7.296;2023-04-01T10:26:00;96551.03;;;11.00;100.00
4398;BME280;2213;49.720;7.296;2023-04-01T10:28:58;96546.59;;;11.00;100.00
4398;BME280;2213;49.720;7.296;2023-04-01T10:35:44;96544.91;;;11.06;100.00
4398;BME280;2213;49.720;7.296;2023-04-01T10:46:11;96543.19;;;11.11;100.00
4398;BME280;2213;49.720;7.296;2023-04-01T10:49:29;96547.06;;;11.21;100.00
4398;BME280;2213;49.720;7.296;2023-04-01T10:52:52;96540.69;;;11.28;100.00
4398;BME280;2213;49.720;7.296;2023-04-01T11:09:37;96551.03;;;11.46;100.00
4398;BME280;2213;49.720;7.296;2023-04-01T11:13:01;96558.41;;;11.49;100.00
4398;BME280;2213;49.720;7.296;2023-04-01T11:16:19;96560.22;;;11.49;100.00
4398;BME280;2213;49.720;7.296;2023-04-01T11:23:19;96561.03;;;11.49;100.00
4398;BME280;2213;49.720;7.296;2023-04-01T11:26:09;96562.63;;;11.50;100.00
4398;BME280;2213;49.720;7.296;2023-04-01T11:32:09;96565.25;;;11.50;100.00
4398;BME280;2213;49.720;7.296;2023-04-01T11:35:01;96574.72;;;11.51;100.00
4398;BME280;2213;49.720;7.296;2023-04-01T11:37:45;96579.47;;;11.54;100.00
4398;BME280;2213;49.720;7.296;2023-04-01T11:40:32;96569.94;;;11.48;100.00
4398;BME280;2213;49.720;7.296;2023-04-01T11:43:18;96572.66;;;11.53;100.00
4398;BME280;2213;49.720;7.296;2023-04-01T11:46:08;96576.88;;;11.54;100.00
4398;BME280;2213;49.720;7.296;2023-04-01T11:48:53;96571.16;;;11.57;100.00
4398;BME280;2213;49.720;7.296;2023-04-01T11:51:58;96573.31;;;11.60;100.00
4398;BME280;2213;49.720;7.296;2023-04-01T11:54:56;96576.88;;;11.66;100.00
4398;BME280;2213;49.720;7.296;2023-04-01T11:58:31;96582.44;;;11.70;100.00
4398;BME280;2213;49.720;7.296;2023-04-01T12:01:22;96585.06;;;11.70;100.00
4398;BME280;2213;49.720;7.296;2023-04-01T12:04:54;96593.34;;;11.67;100.00
4398;BME280;2213;49.720;7.296;2023-04-01T12:08:06;96595.97;;;11.67;100.00
4398;BME280;2213;49.720;7.296;2023-04-01T12:10:46;96606.22;;;11.68;100.00
4398;BME280;2213;49.720;7.296;2023-04-01T12:13:31;96604.88;;;11.66;100.00
4398;BME280;2213;49.720;7.296;2023-04-01T12:16:24;96613.19;;;11.63;100.00
4398;BME280;2213;49.720;7.296;2023-04-01T12:19:03;96609.19;;;11.60;100.00
4398;BME280;2213;49.720;7.296;2023-04-01T12:21:43;96612.59;;;11.60;100.00
4398;BME280;2213;49.720;7.296;2023-04-01T12:24:40;96621.59;;;11.65;100.00
4398;BME280;2213;49.720;7.296;2023-04-01T12:27:41;96620.56;;;11.66;100.00
4398;BME280;2213;49.720;7.296;2023-04-01T12:30:39;96615.56;;;11.64;100.00
4398;BME280;2213;49.720;7.296;2023-04-01T12:33:41;96621.59;;;11.65;100.00
4398;BME280;2213;49.720;7.296;2023-04-01T12:36:30;96624.44;;;11.63;100.00
4398;BME280;2213;49.720;7.296;2023-04-01T12:39:57;96626.16;;;11.57;100.00
4398;BME280;2213;49.720;7.296;2023-04-01T12:42:55;96632.06;;;11.53;100.00
4398;BME280;2213;49.720;7.296;2023-04-01T12:45:31;96638.00;;;11.48;100.00
4398;BME280;2213;49.720;7.296;2023-04-01T12:48:40;96643.66;;;11.45;100.00
4398;BME280;2213;49.720;7.296;2023-04-01T12:51:39;96639.34;;;11.39;100.00
4398;BME280;2213;49.720;7.296;2023-04-01T12:55:08;96657.09;;;11.37;100.00
4398;BME280;2213;49.720;7.296;2023-04-01T12:58:46;96659.94;;;11.36;100.00
4398;BME280;2213;49.720;7.296;2023-04-01T13:02:12;96660.59;;;11.20;100.00
4398;BME280;2213;49.720;7.296;2023-04-01T13:05:24;96654.66;;;11.13;100.00
4398;BME280;2213;49.720;7.296;2023-04-01T13:08:13;96651.84;;;11.14;100.00
4398;BME280;2213;49.720;7.296;2023-04-01T13:11:09;96651.38;;;11.17;100.00
4398;BME280;2213;49.720;7.296;2023-04-01T13:14:13;96655.47;;;11.13;100.00
4398;BME280;2213;49.720;7.296;2023-04-01T13:17:09;96658.78;;;11.20;100.00
4398;BME280;2213;49.720;7.296;2023-04-01T13:19:48;96655.13;;;11.21;100.00
4398;BME280;2213;49.720;7.296;2023-04-01T13:22:48;96657.88;;;11.26;100.00
4398;BME280;2213;49.720;7.296;2023-04-01T13:25:33;96658.44;;;11.28;100.00
4398;BME280;2213;49.720;7.296;2023-04-01T13:28:18;96667.69;;;11.31;100.00
4398;BME280;2213;49.720;7.296;2023-04-01T13:31:02;96658.69;;;11.38;100.00
4398;BME280;2213;49.720;7.296;2023-04-01T13:33:42;96666.66;;;11.43;100.00
4398;BME280;2213;49.720;7.296;2023-04-01T13:36:28;96665.19;;;11.47;100.00
4398;BME280;2213;49.720;7.296;2023-04-01T13:39:27;96665.19;;;11.47;100.00
4398;BME280;2213;49.720;7.296;2023-04-01T13:42:17;96662.66;;;11.52;100.00
4398;BME280;2213;49.720;7.296;2023-04-01T13:44:56;96660.63;;;11.54;100.00
4398;BME280;2213;49.720;7.296;2023-04-01T13:51:09;96662.81;;;11.57;100.00
4398;BME280;2213;49.720;7.296;2023-04-01T13:54:13;96672.81;;;11.60;100.00
4398;BME280;2213;49.720;7.296;2023-04-01T13:57:14;96680.13;;;11.58;100.00
4398;BME280;2213;49.720;7.296;2023-04-01T14:00:10;96686.69;;;11.49;100.00
4398;BME280;2213;49.720;7.296;2023-04-01T14:02:59;96690.69;;;11.52;100.00
4398;BME280;2213;49.720;7.296;2023-04-01T14:05:48;96691.91;;;11.49;100.00
4398;BME280;2213;49.720;7.296;2023-04-01T14:11:34;96704.44;;;11.47;100.00
4398;BME280;2213;49.720;7.296;2023-04-01T14:14:21;96703.53;;;11.53;100.00
4398;BME280;2213;49.720;7.296;2023-04-01T14:17:13;96702.84;;;11.46;100.00
4398;BME280;2213;49.720;7.296;2023-04-01T14:20:27;96697.16;;;11.49;100.00
4398;BME280;2213;49.720;7.296;2023-04-01T14:23:51;96696.47;;;11.42;100.00
4398;BME280;2213;49.720;7.296;2023-04-01T14:27:03;96698.88;;;11.44;100.00
4398;BME280;2213;49.720;7.296;2023-04-01T14:29:52;96702.63;;;11.48;100.00
4398;BME280;2213;49.720;7.296;2023-04-01T14:32:42;96704.22;;;11.49;100.00
4398;BME280;2213;49.720;7.296;2023-04-01T14:35:34;96706.63;;;11.50;100.00
4398;BME280;2213;49.720;7.296;2023-04-01T14:38:27;96701.69;;;11.42;100.00
4398;BME280;2213;49.720;7.296;2023-04-01T14:41:16;96702.38;;;11.49;100.00
4398;BME280;2213;49.720;7.296;2023-04-01T14:44:15;96712.06;;;11.49;100.00
4398;BME280;2213;49.720;7.296;2023-04-01T14:47:44;96713.22;;;11.53;100.00
4398;BME280;2213;49.720;7.296;2023-04-01T14:50:20;96715.97;;;11.58;100.00
4398;BME280;2213;49.720;7.296;2023-04-01T14:52:59;96722.91;;;11.64;100.00
4398;BME280;2213;49.720;7.296;2023-04-01T14:55:51;96723.25;;;11.68;100.00
4398;BME280;2213;49.720;7.296;2023-04-01T14:58:23;96722.81;;;11.71;100.00
4398;BME280;2213;49.720;7.296;2023-04-01T15:01:11;96731.56;;;11.65;100.00
4398;BME280;2213;49.720;7.296;2023-04-01T15:03:58;96729.63;;;11.60;100.00
4398;BME280;2213;49.720;7.296;2023-04-01T15:07:10;96739.28;;;11.48;100.00
4398;BME280;2213;49.720;7.296;2023-04-01T15:09:55;96741.19;;;11.52;100.00
4398;BME280;2213;49.720;7.296;2023-04-01T15:12:42;96741.44;;;11.51;100.00
4398;BME280;2213;49.720;7.296;2023-04-01T15:15:44;96740.19;;;11.53;100.00
4398;BME280;2213;49.720;7.296;2023-04-01T15:18:26;96738.59;;;11.52;100.00
4398;BME280;2213;49.720;7.296;2023-04-01T15:21:18;96746.22;;;11.54;100.00
4398;BME280;2213;49.720;7.296;2023-04-01T15:24:06;96749.41;;;11.56;100.00
4398;BME280;2213;49.720;7.296;2023-04-01T15:27:15;96749.66;;;11.54;100.00
4398;BME280;2213;49.720;7.296;2023-04-01T15:30:27;96756.34;;;11.50;100.00
4398;BME280;2213;49.720;7.296;2023-04-01T15:33:27;96757.84;;;11.58;100.00
4398;BME280;2213;49.720;7.296;2023-04-01T15:36:17;96761.84;;;11.60;100.00
4398;BME280;2213;49.720;7.296;2023-04-01T15:38:52;96758.31;;;11.55;100.00
4398;BME280;2213;49.720;7.296;2023-04-01T15:41:35;96761.13;;;11.53;100.00
4398;BME280;2213;49.720;7.296;2023-04-01T15:44:47;96755.34;;;11.51;100.00